sensor_id;sensor_type;location;lat;lon;timestamp;pressure;altitude;pressure_sealevel;temperature;humidity
38400;BME280;24180;42.676;23.320;2022-12-29T00:01:51;95645.25;;;4.96;100.00
38400;BME280;24180;42.676;23.320;2022-12-29T00:04:17;95654.56;;;5.12;100.00
38400;BME280;24180;42.676;23.320;2022-12-29T00:06:43;95653.53;;;5.15;100.00
38400;BME280;24180;42.676;23.320;2022-12-29T00:09:10;95659.06;;;5.23;100.00
38400;BME280;24180;42.676;23.320;2022-12-29T00:11:36;95653.09;;;5.23;100.00
38400;BME280;24180;42.676;23.320;2022-12-29T00:14:02;95623.94;;;5.09;100.00
38400;BME280;24180;42.676;23.320;2022-12-29T00:16:46;95661.81;;;5.34;100.00
38400;BME280;24180;42.676;23.320;2022-12-29T00:19:12;95649.53;;;5.25;100.00
38400;BME280;24180;42.676;23.320;2022-12-29T00:21:56;95647.44;;;5.17;100.00
38400;BME280;24180;42.676;23.320;2022-12-29T00:24:41;95663.94;;;5.28;100.00
38400;BME280;24180;42.676;23.320;2022-12-29T00:27:26;95626.94;;;5.02;100.00
38400;BME280;24180;42.676;23.320;2022-12-29T00:30:12;95654.94;;;5.21;100.00
38400;BME280;24180;42.676;23.320;2022-12-29T00:32:56;95671.44;;;5.31;100.00
38400;BME280;24180;42.676;23.320;2022-12-29T00:35:55;95669.78;;;5.30;100.00
38400;BME280;24180;42.676;23.320;2022-12-29T00:38:23;95674.50;;;5.37;100.00
38400;BME280;24180;42.676;23.320;2022-12-29T00:41:07;95633.19;;;5.12;100.00
38400;BME280;24180;42.676;23.320;2022-12-29T00:43:51;95661.81;;;5.34;100.00
38400;BME280;24180;42.676;23.320;2022-12-29T00:46:35;95660.47;;;5.29;100.00
38400;BME280;24180;42.676;23.320;2022-12-29T00:49:01;95686.97;;;5.43;100.00
38400;BME280;24180;42.676;23.320;2022-12-29T00:51:45;95680.75;;;5.47;100.00
38400;BME280;24180;42.676;23.320;2022-12-29T00:54:11;95645.31;;;5.24;100.00
38400;BME280;24180;42.676;23.320;2022-12-29T00:56:36;95684.31;;;5.45;100.00
38400;BME280;24180;42.676;23.320;2022-12-29T00:59:04;95647.69;;;5.13;100.00
38400;BME280;24180;42.676;23.320;2022-12-29T01:01:30;95681.66;;;5.32;100.00
38400;BME280;24180;42.676;23.320;2022-12-29T01:03:55;95678.25;;;5.32;100.00
38400;BME280;24180;42.676;23.320;2022-12-29T01:06:21;95676.75;;;5.13;100.00
38400;BME280;24180;42.676;23.320;2022-12-29T01:08:46;95682.91;;;5.25;100.00
38400;BME280;24180;42.676;23.320;2022-12-29T01:11:31;95683.06;;;5.22;100.00
38400;BME280;24180;42.676;23.320;2022-12-29T01:13:57;95674.91;;;5.15;100.00
38400;BME280;24180;42.676;23.320;2022-12-29T01:16:22;95658.88;;;5.12;100.00
38400;BME280;24180;42.676;23.320;2022-12-29T01:18:48;95672.72;;;5.09;100.00
38400;BME280;24180;42.676;23.320;2022-12-29T01:21:13;95647.31;;;5.05;100.00
38400;BME280;24180;42.676;23.320;2022-12-29T01:23:38;95639.13;;;4.98;100.00
38400;BME280;24180;42.676;23.320;2022-12-29T01:26:11;95664.91;;;5.11;100.00
38400;BME280;24180;42.676;23.320;2022-12-29T01:28:37;95661.25;;;5.15;100.00
38400;BME280;24180;42.676;23.320;2022-12-29T01:31:05;95642.44;;;5.00;100.00
38400;BME280;24180;42.676;23.320;2022-12-29T01:33:31;95664.91;;;5.11;100.00
38400;BME280;24180;42.676;23.320;2022-12-29T01:36:00;95662.00;;;5.17;100.00
38400;BME280;24180;42.676;23.320;2022-12-29T01:38:26;95647.31;;;5.05;100.00
38400;BME280;24180;42.676;23.320;2022-12-29T01:40:51;95640.84;;;4.98;100.00
38400;BME280;24180;42.676;23.320;2022-12-29T01:43:17;95624.53;;;4.85;100.00
38400;BME280;24180;42.676;23.320;2022-12-29T01:45:47;95616.31;;;4.78;100.00
38400;BME280;24180;42.676;23.320;2022-12-29T01:48:13;95610.66;;;4.73;100.00
38400;BME280;24180;42.676;23.320;2022-12-29T01:50:42;95645.69;;;4.88;100.00
38400;BME280;24180;42.676;23.320;2022-12-29T01:53:23;95628.31;;;4.78;100.00
38400;BME280;24180;42.676;23.320;2022-12-29T01:55:55;95642.88;;;4.93;100.00
38400;BME280;24180;42.676;23.320;2022-12-29T01:58:22;95634.69;;;4.86;100.00
38400;BME280;24180;42.676;23.320;2022-12-29T02:00:50;95636.25;;;4.89;100.00
38400;BME280;24180;42.676;23.320;2022-12-29T02:03:18;95638.66;;;4.92;100.00
38400;BME280;24180;42.676;23.320;2022-12-29T02:05:54;95632.03;;;4.88;100.00
38400;BME280;24180;42.676;23.320;2022-12-29T02:08:24;95627.09;;;4.85;100.00
38400;BME280;24180;42.676;23.320;2022-12-29T02:10:51;95599.72;;;4.69;100.00
38400;BME280;24180;42.676;23.320;2022-12-29T02:13:16;95601.03;;;4.77;100.00
38400;BME280;24180;42.676;23.320;2022-12-29T02:15:54;95642.50;;;4.99;100.00
38400;BME280;24180;42.676;23.320;2022-12-29T02:25:34;95626.72;;;4.91;100.00
38400;BME280;24180;42.676;23.320;2022-12-29T02:44:37;95639.41;;;4.78;100.00
38400;BME280;24180;42.676;23.320;2022-12-29T02:52:54;95633.56;;;4.76;100.00
38400;BME280;24180;42.676;23.320;2022-12-29T02:55:23;95595.81;;;4.48;100.00
38400;BME280;24180;42.676;23.320;2022-12-29T02:57:49;95599.22;;;4.49;100.00
38400;BME280;24180;42.676;23.320;2022-12-29T03:00:31;95618.50;;;4.70;100.00
38400;BME280;24180;42.676;23.320;2022-12-29T03:11:04;95584.81;;;4.46;100.00
38400;BME280;24180;42.676;23.320;2022-12-29T03:19:16;95610.66;;;4.57;100.00
38400;BME280;24180;42.676;23.320;2022-12-29T03:24:46;95573.88;;;4.29;100.00
38400;BME280;24180;42.676;23.320;2022-12-29T03:27:15;95604.84;;;4.40;100.00
38400;BME280;24180;42.676;23.320;2022-12-29T03:29:47;95606.44;;;4.27;100.00
38400;BME280;24180;42.676;23.320;2022-12-29T03:32:19;95603.00;;;4.12;100.00
38400;BME280;24180;42.676;23.320;2022-12-29T03:34:46;95614.97;;;4.11;100.00
38400;BME280;24180;42.676;23.320;2022-12-29T03:37:17;95576.47;;;3.82;100.00
38400;BME280;24180;42.676;23.320;2022-12-29T03:39:43;95562.03;;;3.81;100.00
38400;BME280;24180;42.676;23.320;2022-12-29T03:42:13;95559.03;;;3.88;100.00
38400;BME280;24180;42.676;23.320;2022-12-29T03:44:42;95597.53;;;3.87;100.00
38400;BME280;24180;42.676;23.320;2022-12-29T03:47:09;95572.81;;;3.54;100.00
38400;BME280;24180;42.676;23.320;2022-12-29T03:49:35;95604.72;;;3.64;100.00
38400;BME280;24180;42.676;23.320;2022-12-29T03:52:00;95577.00;;;3.24;100.00
38400;BME280;24180;42.676;23.320;2022-12-29T03:54:26;95625.28;;;3.47;100.00
38400;BME280;24180;42.676;23.320;2022-12-29T03:56:51;95596.97;;;3.33;100.00
38400;BME280;24180;42.676;23.320;2022-12-29T03:59:16;95612.94;;;3.38;100.00
38400;BME280;24180;42.676;23.320;2022-12-29T04:01:42;95638.13;;;3.46;100.00
38400;BME280;24180;42.676;23.320;2022-12-29T04:04:08;95594.72;;;3.11;100.00
38400;BME280;24180;42.676;23.320;2022-12-29T04:06:33;95631.69;;;3.39;100.00
38400;BME280;24180;42.676;23.320;2022-12-29T04:08:59;95630.75;;;3.24;100.00
38400;BME280;24180;42.676;23.320;2022-12-29T04:11:24;95586.22;;;2.94;100.00
38400;BME280;24180;42.676;23.320;2022-12-29T04:13:50;95626.97;;;3.14;100.00
38400;BME280;24180;42.676;23.320;2022-12-29T04:16:15;95615.56;;;3.04;100.00
38400;BME280;24180;42.676;23.320;2022-12-29T04:18:41;95625.50;;;3.10;100.00
38400;BME280;24180;42.676;23.320;2022-12-29T04:21:06;95588.88;;;2.92;100.00
38400;BME280;24180;42.676;23.320;2022-12-29T04:23:36;95618.13;;;3.04;100.00
38400;BME280;24180;42.676;23.320;2022-12-29T04:26:03;95597.06;;;2.81;100.00
38400;BME280;24180;42.676;23.320;2022-12-29T04:28:29;95616.09;;;2.93;100.00
38400;BME280;24180;42.676;23.320;2022-12-29T04:30:54;95590.63;;;2.74;100.00
38400;BME280;24180;42.676;23.320;2022-12-29T04:33:20;95638.75;;;3.01;100.00
38400;BME280;24180;42.676;23.320;2022-12-29T04:35:46;95633.25;;;2.91;100.00
38400;BME280;24180;42.676;23.320;2022-12-29T04:38:12;95634.84;;;2.94;100.00
38400;BME280;24180;42.676;23.320;2022-12-29T04:40:39;95634.94;;;2.92;100.00
38400;BME280;24180;42.676;23.320;2022-12-29T04:43:05;95609.34;;;2.75;100.00
38400;BME280;24180;42.676;23.320;2022-12-29T04:45:31;95622.66;;;2.99;100.00
38400;BME280;24180;42.676;23.320;2022-12-29T04:47:56;95608.22;;;2.80;100.00
38400;BME280;24180;42.676;23.320;2022-12-29T04:50:22;95621.69;;;2.84;100.00
38400;BME280;24180;42.676;23.320;2022-12-29T04:52:47;95617.84;;;2.75;100.00
38400;BME280;24180;42.676;23.320;2022-12-29T04:55:13;95661.41;;;2.74;100.00
38400;BME280;24180;42.676;23.320;2022-12-29T04:57:38;95632.19;;;2.61;100.00
38400;BME280;24180;42.676;23.320;2022-12-29T05:00:04;95585.97;;;2.48;100.00
38400;BME280;24180;42.676;23.320;2022-12-29T05:02:30;95638.91;;;2.80;100.00
38400;BME280;24180;42.676;23.320;2022-12-29T05:04:55;95641.00;;;2.90;100.00
38400;BME280;24180;42.676;23.320;2022-12-29T05:07:21;95614.63;;;2.72;100.00
38400;BME280;24180;42.676;23.320;2022-12-29T05:09:46;95653.78;;;3.07;100.00
38400;BME280;24180;42.676;23.320;2022-12-29T05:12:11;95628.81;;;2.95;100.00
38400;BME280;24180;42.676;23.320;2022-12-29T05:14:37;95651.50;;;3.18;100.00
38400;BME280;24180;42.676;23.320;2022-12-29T05:17:02;95662.63;;;3.34;100.00
38400;BME280;24180;42.676;23.320;2022-12-29T05:19:28;95619.44;;;3.28;100.00
38400;BME280;24180;42.676;23.320;2022-12-29T05:21:53;95619.97;;;3.17;100.00
38400;BME280;24180;42.676;23.320;2022-12-29T05:24:19;95637.47;;;3.42;100.00
38400;BME280;24180;42.676;23.320;2022-12-29T05:26:45;95620.38;;;3.43;100.00
38400;BME280;24180;42.676;23.320;2022-12-29T05:29:10;95618.16;;;3.37;100.00
38400;BME280;24180;42.676;23.320;2022-12-29T05:31:35;95651.03;;;3.44;100.00
38400;BME280;24180;42.676;23.320;2022-12-29T05:34:02;95647.53;;;3.45;100.00
38400;BME280;24180;42.676;23.320;2022-12-29T05:36:27;95661.38;;;3.58;100.00
38400;BME280;24180;42.676;23.320;2022-12-29T05:38:53;95629.31;;;3.51;100.00
38400;BME280;24180;42.676;23.320;2022-12-29T05:41:18;95628.50;;;3.51;100.00
38400;BME280;24180;42.676;23.320;2022-12-29T05:43:44;95660.94;;;3.83;100.00
38400;BME280;24180;42.676;23.320;2022-12-29T05:46:10;95628.75;;;3.29;100.00
38400;BME280;24180;42.676;23.320;2022-12-29T05:48:35;95638.38;;;3.41;100.00
38400;BME280;24180;42.676;23.320;2022-12-29T05:51:00;95657.75;;;3.62;100.00
38400;BME280;24180;42.676;23.320;2022-12-29T05:53:26;95654.59;;;3.57;100.00
38400;BME280;24180;42.676;23.320;2022-12-29T05:55:51;95609.06;;;3.14;100.00
38400;BME280;24180;42.676;23.320;2022-12-29T05:58:17;95661.38;;;3.58;100.00
38400;BME280;24180;42.676;23.320;2022-12-29T06:00:43;95676.22;;;3.69;100.00
38400;BME280;24180;42.676;23.320;2022-12-29T06:03:08;95661.72;;;3.52;100.00
38400;BME280;24180;42.676;23.320;2022-12-29T06:05:34;95668.59;;;3.67;100.00
38400;BME280;24180;42.676;23.320;2022-12-29T06:07:59;95670.84;;;3.89;100.00
38400;BME280;24180;42.676;23.320;2022-12-29T06:10:25;95637.03;;;3.67;100.00
38400;BME280;24180;42.676;23.320;2022-12-29T06:12:50;95670.94;;;3.88;100.00
38400;BME280;24180;42.676;23.320;2022-12-29T06:15:16;95633.25;;;3.90;100.00
38400;BME280;24180;42.676;23.320;2022-12-29T06:17:42;95685.25;;;4.23;100.00
38400;BME280;24180;42.676;23.320;2022-12-29T06:20:08;95667.31;;;4.23;100.00
38400;BME280;24180;42.676;23.320;2022-12-29T06:22:34;95683.03;;;4.33;100.00
38400;BME280;24180;42.676;23.320;2022-12-29T06:25:00;95680.63;;;4.45;100.00
38400;BME280;24180;42.676;23.320;2022-12-29T06:27:26;95655.25;;;4.25;100.00
38400;BME280;24180;42.676;23.320;2022-12-29T06:29:52;95676.31;;;4.30;100.00
38400;BME280;24180;42.676;23.320;2022-12-29T06:32:17;95642.34;;;4.27;100.00
38400;BME280;24180;42.676;23.320;2022-12-29T06:34:43;95680.22;;;4.53;100.00
38400;BME280;24180;42.676;23.320;2022-12-29T06:37:10;95682.13;;;4.49;100.00
38400;BME280;24180;42.676;23.320;2022-12-29T06:39:35;95690.19;;;4.57;100.00
38400;BME280;24180;42.676;23.320;2022-12-29T06:42:01;95682.66;;;4.54;100.00
38400;BME280;24180;42.676;23.320;2022-12-29T06:44:26;95690.19;;;4.57;100.00
38400;BME280;24180;42.676;23.320;2022-12-29T06:46:51;95688.53;;;4.72;100.00
38400;BME280;24180;42.676;23.320;2022-12-29T06:49:17;95687.72;;;4.56;100.00
38400;BME280;24180;42.676;23.320;2022-12-29T06:51:42;95696.22;;;4.72;100.00
38400;BME280;24180;42.676;23.320;2022-12-29T06:54:08;95686.28;;;4.66;100.00
38400;BME280;24180;42.676;23.320;2022-12-29T06:56:33;95696.88;;;4.76;100.00
38400;BME280;24180;42.676;23.320;2022-12-29T06:58:59;95684.56;;;4.66;100.00
38400;BME280;24180;42.676;23.320;2022-12-29T07:01:26;95683.78;;;4.80;100.00
38400;BME280;24180;42.676;23.320;2022-12-29T07:03:51;95679.13;;;4.87;100.00
38400;BME280;24180;42.676;23.320;2022-12-29T07:06:17;95710.03;;;5.15;100.00
38400;BME280;24180;42.676;23.320;2022-12-29T07:08:42;95697.38;;;5.12;100.00
38400;BME280;24180;42.676;23.320;2022-12-29T07:11:08;95705.28;;;5.23;100.00
38400;BME280;24180;42.676;23.320;2022-12-29T07:13:34;95666.91;;;5.06;100.00
38400;BME280;24180;42.676;23.320;2022-12-29T07:15:59;95676.84;;;5.12;100.00
38400;BME280;24180;42.676;23.320;2022-12-29T07:18:24;95703.03;;;5.47;100.00
38400;BME280;24180;42.676;23.320;2022-12-29T07:20:50;95690.94;;;5.49;100.00
38400;BME280;24180;42.676;23.320;2022-12-29T07:23:15;95708.19;;;5.75;100.00
38400;BME280;24180;42.676;23.320;2022-12-29T07:25:41;95676.72;;;5.72;100.00
38400;BME280;24180;42.676;23.320;2022-12-29T07:28:06;95687.00;;;5.72;100.00
38400;BME280;24180;42.676;23.320;2022-12-29T07:30:32;95681.31;;;5.81;100.00
38400;BME280;24180;42.676;23.320;2022-12-29T07:32:58;95727.50;;;6.10;100.00
38400;BME280;24180;42.676;23.320;2022-12-29T07:35:23;95699.31;;;5.95;100.00
38400;BME280;24180;42.676;23.320;2022-12-29T07:37:49;95716.75;;;5.76;100.00
38400;BME280;24180;42.676;23.320;2022-12-29T07:40:15;95719.75;;;5.82;100.00
38400;BME280;24180;42.676;23.320;2022-12-29T07:42:40;95703.91;;;5.90;100.00
38400;BME280;24180;42.676;23.320;2022-12-29T07:45:08;95690.69;;;5.96;100.00
38400;BME280;24180;42.676;23.320;2022-12-29T07:47:34;95692.06;;;6.16;100.00
38400;BME280;24180;42.676;23.320;2022-12-29T07:49:59;95725.53;;;6.42;100.00
38400;BME280;24180;42.676;23.320;2022-12-29T07:52:25;95706.53;;;6.31;100.00
38400;BME280;24180;42.676;23.320;2022-12-29T07:54:50;95706.56;;;6.17;100.00
38400;BME280;24180;42.676;23.320;2022-12-29T07:57:34;95692.88;;;6.16;100.00
38400;BME280;24180;42.676;23.320;2022-12-29T08:00:00;95726.81;;;6.49;100.00
38400;BME280;24180;42.676;23.320;2022-12-29T08:02:25;95717.78;;;6.56;100.00
38400;BME280;24180;42.676;23.320;2022-12-29T08:04:54;95728.31;;;6.66;100.00
38400;BME280;24180;42.676;23.320;2022-12-29T08:07:20;95734.22;;;6.54;100.00
38400;BME280;24180;42.676;23.320;2022-12-29T08:09:45;95719.50;;;6.70;100.00
38400;BME280;24180;42.676;23.320;2022-12-29T08:12:11;95746.16;;;6.96;100.00
38400;BME280;24180;42.676;23.320;2022-12-29T08:14:36;95720.03;;;7.02;100.00
38400;BME280;24180;42.676;23.320;2022-12-29T08:17:02;95704.44;;;6.91;100.00
38400;BME280;24180;42.676;23.320;2022-12-29T08:19:27;95726.66;;;7.19;100.00
38400;BME280;24180;42.676;23.320;2022-12-29T08:21:53;95702.66;;;7.18;100.00
38400;BME280;24180;42.676;23.320;2022-12-29T08:24:18;95724.97;;;7.44;100.00
38400;BME280;24180;42.676;23.320;2022-12-29T08:26:44;95736.41;;;7.40;100.00
38400;BME280;24180;42.676;23.320;2022-12-29T08:29:09;95714.53;;;7.33;100.00
38400;BME280;24180;42.676;23.320;2022-12-29T08:31:34;95727.94;;;7.38;100.00
38400;BME280;24180;42.676;23.320;2022-12-29T08:34:00;95699.28;;;7.18;100.00
38400;BME280;24180;42.676;23.320;2022-12-29T08:36:28;95729.06;;;7.34;100.00
38400;BME280;24180;42.676;23.320;2022-12-29T08:38:54;95681.31;;;7.03;100.00
38400;BME280;24180;42.676;23.320;2022-12-29T08:41:19;95728.06;;;7.49;100.00
38400;BME280;24180;42.676;23.320;2022-12-29T08:43:49;95726.94;;;7.53;100.00
38400;BME280;24180;42.676;23.320;2022-12-29T08:46:15;95720.53;;;7.34;100.00
38400;BME280;24180;42.676;23.320;2022-12-29T08:48:41;95731.16;;;7.42;100.00
38400;BME280;24180;42.676;23.320;2022-12-29T08:51:06;95739.69;;;7.42;100.00
38400;BME280;24180;42.676;23.320;2022-12-29T08:53:33;95724.47;;;7.65;100.00
38400;BME280;24180;42.676;23.320;2022-12-29T08:55:59;95720.03;;;7.92;100.00
38400;BME280;24180;42.676;23.320;2022-12-29T08:58:25;95681.78;;;7.61;100.00
38400;BME280;24180;42.676;23.320;2022-12-29T09:00:53;95725.91;;;7.56;100.00
38400;BME280;24180;42.676;23.320;2022-12-29T09:03:19;95692.81;;;7.37;100.00
38400;BME280;24180;42.676;23.320;2022-12-29T09:05:50;95678.34;;;7.35;100.00
38400;BME280;24180;42.676;23.320;2022-12-29T09:08:16;95684.25;;;7.49;100.00
38400;BME280;24180;42.676;23.320;2022-12-29T09:10:42;95688.16;;;7.42;100.00
38400;BME280;24180;42.676;23.320;2022-12-29T09:13:08;95715.22;;;7.62;100.00
38400;BME280;24180;42.676;23.320;2022-12-29T09:15:33;95712.13;;;7.70;100.00
38400;BME280;24180;42.676;23.320;2022-12-29T09:17:59;95701.88;;;8.06;100.00
38400;BME280;24180;42.676;23.320;2022-12-29T09:20:24;95704.13;;;8.72;100.00
38400;BME280;24180;42.676;23.320;2022-12-29T09:22:50;95700.50;;;9.33;100.00
38400;BME280;24180;42.676;23.320;2022-12-29T09:25:16;95703.69;;;10.27;100.00
38400;BME280;24180;42.676;23.320;2022-12-29T09:27:42;95695.38;;;10.89;100.00
38400;BME280;24180;42.676;23.320;2022-12-29T09:30:10;95690.50;;;10.96;100.00
38400;BME280;24180;42.676;23.320;2022-12-29T09:32:36;95677.16;;;11.32;100.00
38400;BME280;24180;42.676;23.320;2022-12-29T09:35:01;95682.97;;;11.77;100.00
38400;BME280;24180;42.676;23.320;2022-12-29T09:37:27;95688.00;;;11.99;100.00
38400;BME280;24180;42.676;23.320;2022-12-29T09:39:53;95669.28;;;12.36;100.00
38400;BME280;24180;42.676;23.320;2022-12-29T09:42:43;95653.66;;;12.76;100.00
38400;BME280;24180;42.676;23.320;2022-12-29T09:45:22;95676.00;;;13.17;100.00
38400;BME280;24180;42.676;23.320;2022-12-29T09:47:50;95651.47;;;12.81;99.48
38400;BME280;24180;42.676;23.320;2022-12-29T09:50:32;95654.13;;;13.19;100.00
38400;BME280;24180;42.676;23.320;2022-12-29T09:53:07;95671.09;;;13.52;99.58
38400;BME280;24180;42.676;23.320;2022-12-29T09:55:49;95678.09;;;13.88;96.13
38400;BME280;24180;42.676;23.320;2022-12-29T10:01:42;95660.16;;;15.22;81.12
38400;BME280;24180;42.676;23.320;2022-12-29T10:03:50;95633.34;;;14.76;81.80
38400;BME280;24180;42.676;23.320;2022-12-29T10:09:19;95650.75;;;15.29;78.03
38400;BME280;24180;42.676;23.320;2022-12-29T10:24:42;95612.91;;;18.07;58.97
38400;BME280;24180;42.676;23.320;2022-12-29T10:27:12;95606.53;;;18.57;53.11
38400;BME280;24180;42.676;23.320;2022-12-29T10:29:49;95626.09;;;18.77;51.97
38400;BME280;24180;42.676;23.320;2022-12-29T10:32:30;95620.44;;;18.88;50.69
38400;BME280;24180;42.676;23.320;2022-12-29T10:35:14;95611.47;;;18.44;51.96
38400;BME280;24180;42.676;23.320;2022-12-29T10:38:20;95628.53;;;17.52;56.87
38400;BME280;24180;42.676;23.320;2022-12-29T10:43:29;95614.66;;;19.38;51.04
38400;BME280;24180;42.676;23.320;2022-12-29T10:46:01;95585.88;;;19.68;50.83
38400;BME280;24180;42.676;23.320;2022-12-29T10:48:30;95599.41;;;20.23;45.96
38400;BME280;24180;42.676;23.320;2022-12-29T10:50:58;95577.94;;;20.05;46.17
38400;BME280;24180;42.676;23.320;2022-12-29T10:53:38;95572.13;;;20.53;46.81
38400;BME280;24180;42.676;23.320;2022-12-29T10:58:59;95571.59;;;22.26;44.01
38400;BME280;24180;42.676;23.320;2022-12-29T11:01:34;95581.72;;;21.67;41.81
38400;BME280;24180;42.676;23.320;2022-12-29T11:06:54;95575.47;;;19.89;46.68
38400;BME280;24180;42.676;23.320;2022-12-29T11:09:27;95541.19;;;19.68;47.05
38400;BME280;24180;42.676;23.320;2022-12-29T11:11:53;95546.13;;;18.26;50.67
38400;BME280;24180;42.676;23.320;2022-12-29T11:14:30;95536.09;;;16.95;57.04
38400;BME280;24180;42.676;23.320;2022-12-29T11:16:57;95585.88;;;15.77;64.72
38400;BME280;24180;42.676;23.320;2022-12-29T11:19:26;95582.94;;;14.93;74.03
38400;BME280;24180;42.676;23.320;2022-12-29T11:21:52;95572.84;;;14.28;82.49
38400;BME280;24180;42.676;23.320;2022-12-29T11:26:53;95550.09;;;12.90;97.67
38400;BME280;24180;42.676;23.320;2022-12-29T11:29:27;95578.13;;;12.77;100.00
38400;BME280;24180;42.676;23.320;2022-12-29T11:31:56;95569.25;;;12.51;100.00
38400;BME280;24180;42.676;23.320;2022-12-29T11:34:31;95512.41;;;11.18;100.00
38400;BME280;24180;42.676;23.320;2022-12-29T11:37:02;95569.72;;;11.46;100.00
38400;BME280;24180;42.676;23.320;2022-12-29T11:39:53;95557.72;;;11.24;100.00
38400;BME280;24180;42.676;23.320;2022-12-29T11:42:40;95565.28;;;11.16;100.00
38400;BME280;24180;42.676;23.320;2022-12-29T11:47:48;95563.53;;;10.96;100.00
38400;BME280;24180;42.676;23.320;2022-12-29T11:50:21;95546.94;;;10.46;100.00
38400;BME280;24180;42.676;23.320;2022-12-29T11:52:49;95569.41;;;10.77;100.00
38400;BME280;24180;42.676;23.320;2022-12-29T11:55:21;95566.91;;;10.87;100.00
38400;BME280;24180;42.676;23.320;2022-12-29T11:57:48;95569.66;;;10.74;100.00
38400;BME280;24180;42.676;23.320;2022-12-29T12:00:16;95559.50;;;10.82;100.00
38400;BME280;24180;42.676;23.320;2022-12-29T12:02:58;95566.75;;;10.88;100.00
38400;BME280;24180;42.676;23.320;2022-12-29T12:08:16;95548.69;;;11.18;100.00
38400;BME280;24180;42.676;23.320;2022-12-29T12:10:47;95555.25;;;11.53;100.00
38400;BME280;24180;42.676;23.320;2022-12-29T12:13:33;95550.25;;;11.61;100.00
38400;BME280;24180;42.676;23.320;2022-12-29T12:16:17;95542.47;;;11.61;100.00
38400;BME280;24180;42.676;23.320;2022-12-29T12:18:50;95515.25;;;11.46;100.00
38400;BME280;24180;42.676;23.320;2022-12-29T12:24:17;95544.13;;;11.62;100.00
38400;BME280;24180;42.676;23.320;2022-12-29T12:26:59;95512.88;;;11.33;100.00
38400;BME280;24180;42.676;23.320;2022-12-29T12:29:52;95539.81;;;11.72;100.00
38400;BME280;24180;42.676;23.320;2022-12-29T12:32:34;95525.78;;;11.84;100.00
38400;BME280;24180;42.676;23.320;2022-12-29T12:35:12;95497.47;;;11.71;100.00
38400;BME280;24180;42.676;23.320;2022-12-29T12:46:14;95513.97;;;11.31;100.00
38400;BME280;24180;42.676;23.320;2022-12-29T12:49:14;95534.78;;;11.50;100.00
38400;BME280;24180;42.676;23.320;2022-12-29T12:51:55;95446.63;;;10.89;100.00
38400;BME280;24180;42.676;23.320;2022-12-29T12:55:00;95511.22;;;11.32;100.00
38400;BME280;24180;42.676;23.320;2022-12-29T12:57:40;95533.72;;;11.32;100.00
38400;BME280;24180;42.676;23.320;2022-12-29T13:00:14;95527.94;;;11.18;100.00
38400;BME280;24180;42.676;23.320;2022-12-29T13:02:59;95529.97;;;11.15;100.00
38400;BME280;24180;42.676;23.320;2022-12-29T13:19:41;95533.06;;;10.36;100.00
38400;BME280;24180;42.676;23.320;2022-12-29T13:22:33;95532.84;;;10.27;100.00
38400;BME280;24180;42.676;23.320;2022-12-29T13:25:35;95533.09;;;10.24;100.00
38400;BME280;24180;42.676;23.320;2022-12-29T13:28:29;95545.22;;;10.13;100.00
38400;BME280;24180;42.676;23.320;2022-12-29T13:31:15;95484.88;;;9.69;100.00
38400;BME280;24180;42.676;23.320;2022-12-29T13:37:00;95503.28;;;9.87;100.00
38400;BME280;24180;42.676;23.320;2022-12-29T13:39:48;95529.84;;;10.00;100.00
38400;BME280;24180;42.676;23.320;2022-12-29T13:42:17;95524.66;;;10.00;100.00
38400;BME280;24180;42.676;23.320;2022-12-29T13:44:48;95536.63;;;10.12;100.00
38400;BME280;24180;42.676;23.320;2022-12-29T13:47:46;95539.47;;;10.09;100.00
38400;BME280;24180;42.676;23.320;2022-12-29T13:50:19;95537.56;;;10.11;100.00
38400;BME280;24180;42.676;23.320;2022-12-29T13:53:08;95541.81;;;10.12;100.00
38400;BME280;24180;42.676;23.320;2022-12-29T13:55:56;95502.81;;;9.93;100.00
38400;BME280;24180;42.676;23.320;2022-12-29T14:03:57;95538.91;;;10.17;100.00
38400;BME280;24180;42.676;23.320;2022-12-29T14:08:52;95522.69;;;9.93;100.00
38400;BME280;24180;42.676;23.320;2022-12-29T14:11:21;95538.78;;;9.96;100.00
38400;BME280;24180;42.676;23.320;2022-12-29T14:13:49;95542.31;;;9.95;100.00
38400;BME280;24180;42.676;23.320;2022-12-29T14:18:49;95554.72;;;9.58;100.00
38400;BME280;24180;42.676;23.320;2022-12-29T14:21:23;95527.19;;;9.35;100.00
38400;BME280;24180;42.676;23.320;2022-12-29T14:23:53;95532.84;;;9.29;100.00
38400;BME280;24180;42.676;23.320;2022-12-29T14:29:16;95570.34;;;9.34;100.00
38400;BME280;24180;42.676;23.320;2022-12-29T14:31:41;95568.94;;;9.30;100.00
38400;BME280;24180;42.676;23.320;2022-12-29T14:39:42;95569.94;;;9.17;100.00
38400;BME280;24180;42.676;23.320;2022-12-29T14:49:55;95575.84;;;8.73;100.00
38400;BME280;24180;42.676;23.320;2022-12-29T14:52:25;95568.13;;;8.49;100.00
38400;BME280;24180;42.676;23.320;2022-12-29T14:54:58;95579.22;;;8.38;100.00
38400;BME280;24180;42.676;23.320;2022-12-29T14:57:37;95585.53;;;8.34;100.00
38400;BME280;24180;42.676;23.320;2022-12-29T15:00:15;95557.91;;;8.11;100.00
38400;BME280;24180;42.676;23.320;2022-12-29T15:02:48;95563.75;;;8.02;100.00
38400;BME280;24180;42.676;23.320;2022-12-29T15:05:42;95574.84;;;8.02;100.00
38400;BME280;24180;42.676;23.320;2022-12-29T15:08:10;95525.84;;;7.79;100.00
38400;BME280;24180;42.676;23.320;2022-12-29T15:10:42;95558.31;;;7.94;100.00
38400;BME280;24180;42.676;23.320;2022-12-29T15:13:20;95565.81;;;7.97;100.00
38400;BME280;24180;42.676;23.320;2022-12-29T15:15:46;95558.66;;;7.77;100.00
38400;BME280;24180;42.676;23.320;2022-12-29T15:18:15;95553.91;;;7.71;100.00
38400;BME280;24180;42.676;23.320;2022-12-29T15:20:50;95563.59;;;7.80;100.00